createdAt,value
2023-02-15T00:05:04.100Z,-0.40
2023-02-15T00:11:06.318Z,-0.50
2023-02-15T00:17:08.166Z,-0.40
2023-02-15T00:23:10.138Z,-0.50
2023-02-15T00:29:13.575Z,-0.50
2023-02-15T00:35:16.459Z,-0.60
2023-02-15T00:41:18.278Z,-0.60
2023-02-15T00:47:20.123Z,-0.60
2023-02-15T00:53:22.344Z,-0.50
2023-02-15T00:59:24.166Z,-0.40
2023-02-15T01:05:26.297Z,-0.40
2023-02-15T01:11:28.071Z,-0.50
2023-02-15T01:17:30.160Z,-0.80
2023-02-15T01:23:33.868Z,-0.90
2023-02-15T01:29:35.615Z,-0.90
2023-02-15T01:35:38.464Z,-1.00
2023-02-15T01:41:40.246Z,-1.10
2023-02-15T01:47:48.280Z,-1.20
2023-02-15T01:53:57.210Z,-1.30
2023-02-15T02:00:03.932Z,-1.00
2023-02-15T02:06:14.509Z,-0.50
2023-02-15T02:12:18.405Z,-0.10
2023-02-15T02:18:52.406Z,0.20
2023-02-15T02:25:19.579Z,0.30
2023-02-15T02:32:04.321Z,0.50
2023-02-15T02:38:12.842Z,0.50
2023-02-15T02:44:24.661Z,0.60
2023-02-15T02:50:30.864Z,0.60
2023-02-15T02:56:44.083Z,0.70
2023-02-15T03:02:50.049Z,0.70
2023-02-15T03:09:19.650Z,0.70
2023-02-15T03:15:25.393Z,0.70
2023-02-15T03:21:50.537Z,0.60
2023-02-15T03:28:06.495Z,0.60
2023-02-15T03:34:14.369Z,0.50
2023-02-15T03:40:39.025Z,0.40
2023-02-15T03:46:49.828Z,0.30
2023-02-15T03:52:54.529Z,0.20
2023-02-15T03:59:14.948Z,0.20
2023-02-15T04:05:16.939Z,0.20
2023-02-15T04:11:18.743Z,0.40
2023-02-15T04:17:20.590Z,0.40
2023-02-15T04:23:40.959Z,0.40
2023-02-15T04:29:42.787Z,0.40
2023-02-15T04:35:51.730Z,0.40
2023-02-15T04:41:53.584Z,0.40
2023-02-15T04:47:58.016Z,0.40
2023-02-15T04:53:59.957Z,0.20
2023-02-15T05:00:01.971Z,0.10
2023-02-15T05:06:09.741Z,0.00
2023-02-15T05:12:12.653Z,0.10
2023-02-15T05:18:18.286Z,0.10
2023-02-15T05:24:38.510Z,0.00
2023-02-15T05:30:40.813Z,0.20
2023-02-15T05:36:42.635Z,0.20
2023-02-15T05:42:44.445Z,0.20
2023-02-15T05:48:46.202Z,0.30
2023-02-15T05:54:48.086Z,0.10
2023-02-15T06:00:49.851Z,0.10
2023-02-15T06:06:53.845Z,0.10
2023-02-15T06:12:55.683Z,0.20
2023-02-15T06:18:57.515Z,0.00
2023-02-15T06:25:01.441Z,0.20
2023-02-15T06:31:04.137Z,0.30
2023-02-15T06:37:06.119Z,0.40
2023-02-15T06:43:11.680Z,0.40
2023-02-15T06:49:18.803Z,0.50
2023-02-15T06:55:20.667Z,0.50
2023-02-15T07:01:22.547Z,0.30
2023-02-15T07:07:24.524Z,0.50
2023-02-15T07:13:26.868Z,0.50
2023-02-15T07:19:42.913Z,0.60
2023-02-15T07:25:44.750Z,0.50
2023-02-15T07:31:46.890Z,0.50
2023-02-15T07:37:52.589Z,0.70
2023-02-15T07:43:54.796Z,0.70
2023-02-15T07:49:57.083Z,0.60
2023-02-15T07:56:09.759Z,0.40
2023-02-15T08:02:12.364Z,0.60
2023-02-15T08:08:32.151Z,0.20
2023-02-15T08:14:34.148Z,0.10
2023-02-15T08:20:36.300Z,0.30
2023-02-15T08:26:41.974Z,0.60
2023-02-15T08:32:44.402Z,0.90
2023-02-15T08:38:46.808Z,1.30
2023-02-15T08:44:51.552Z,1.60
2023-02-15T08:50:55.436Z,1.80
2023-02-15T08:57:01.492Z,2.00
2023-02-15T09:03:03.704Z,2.20
2023-02-15T09:09:06.387Z,2.40
2023-02-15T09:15:08.884Z,2.60
2023-02-15T09:21:31.554Z,2.70
2023-02-15T09:27:33.737Z,2.70
2023-02-15T09:33:37.444Z,2.80
2023-02-15T09:39:42.541Z,2.90
2023-02-15T09:46:26.805Z,2.70
2023-02-15T09:52:31.945Z,2.70
2023-02-15T09:58:53.673Z,2.50
2023-02-15T10:05:33.573Z,2.60
2023-02-15T10:11:53.289Z,2.70
2023-02-15T10:18:20.824Z,2.90
2023-02-15T10:24:31.604Z,3.20
2023-02-15T10:30:50.156Z,3.40
2023-02-15T10:37:29.574Z,3.70
2023-02-15T10:44:00.205Z,3.80
2023-02-15T10:50:23.501Z,4.00
2023-02-15T10:56:27.955Z,4.20
2023-02-15T11:02:40.526Z,4.50
2023-02-15T11:08:54.284Z,4.80
2023-02-15T11:15:05.081Z,5.00
2023-02-15T11:21:19.264Z,5.30
2023-02-15T11:27:27.953Z,5.60
2023-02-15T11:33:35.974Z,5.80
2023-02-15T11:39:38.437Z,6.00
2023-02-15T11:45:43.792Z,6.10
2023-02-15T11:51:48.801Z,6.30
2023-02-15T11:58:26.014Z,6.20
2023-02-15T12:04:38.232Z,6.20
2023-02-15T12:11:06.783Z,6.30
2023-02-15T12:17:14.754Z,6.40
2023-02-15T12:23:18.651Z,6.50
2023-02-15T12:29:25.099Z,6.60
2023-02-15T12:35:32.499Z,6.90
2023-02-15T12:41:35.212Z,7.20
2023-02-15T12:47:37.124Z,7.40
2023-02-15T12:53:39.766Z,7.70
2023-02-15T12:59:58.105Z,8.00
2023-02-15T13:06:00.471Z,8.00
2023-02-15T13:12:17.070Z,8.30
2023-02-15T13:18:32.590Z,8.50
2023-02-15T13:24:41.859Z,8.60
2023-02-15T13:30:47.685Z,8.60
2023-02-15T13:37:24.917Z,8.60
2023-02-15T13:43:45.462Z,8.70
2023-02-15T13:50:05.929Z,9.00
2023-02-15T13:56:16.477Z,9.10
2023-02-15T14:02:50.182Z,9.40
2023-02-15T14:09:18.747Z,9.80
2023-02-15T14:15:26.312Z,9.90
2023-02-15T14:21:49.727Z,9.80
2023-02-15T14:28:03.450Z,9.80
2023-02-15T14:34:05.288Z,9.40
2023-02-15T14:40:50.601Z,9.40
2023-02-15T14:47:19.246Z,9.40
2023-02-15T14:53:39.344Z,9.20
2023-02-15T14:59:53.531Z,9.10
2023-02-15T15:06:06.121Z,9.30
2023-02-15T15:12:23.290Z,9.30
2023-02-15T15:18:46.700Z,9.00
2023-02-15T15:24:52.034Z,8.80
2023-02-15T15:30:55.549Z,8.50
2023-02-15T15:37:31.278Z,8.30
2023-02-15T15:44:01.134Z,8.10
2023-02-15T15:50:17.871Z,7.90
2023-02-15T15:56:28.983Z,7.60
2023-02-15T16:02:30.844Z,7.50
2023-02-15T16:08:40.021Z,7.30
2023-02-15T16:14:43.854Z,7.00
2023-02-15T16:20:56.071Z,6.70
2023-02-15T16:27:18.261Z,6.20
2023-02-15T16:33:21.176Z,5.90
2023-02-15T16:39:22.994Z,5.20
2023-02-15T16:45:27.934Z,5.00
2023-02-15T16:51:33.766Z,4.60
2023-02-15T16:57:39.254Z,4.10
2023-02-15T17:03:42.412Z,3.70
2023-02-15T17:09:55.774Z,3.30
2023-02-15T17:16:01.045Z,2.90
2023-02-15T17:22:05.302Z,2.70
2023-02-15T17:28:18.475Z,2.30
2023-02-15T17:34:44.109Z,2.10
2023-02-15T17:40:45.998Z,1.90
2023-02-15T17:46:47.836Z,1.80
2023-02-15T17:52:50.775Z,1.80
2023-02-15T17:58:52.555Z,1.70
2023-02-15T18:05:12.957Z,1.60
2023-02-15T18:11:33.241Z,1.50
2023-02-15T18:17:40.026Z,1.40
2023-02-15T18:23:42.600Z,1.30
2023-02-15T18:29:44.460Z,1.50
2023-02-15T18:36:07.106Z,1.40
2023-02-15T18:42:27.355Z,1.20
2023-02-15T18:48:29.123Z,1.20
2023-02-15T18:54:31.027Z,0.90
2023-02-15T19:00:34.758Z,0.90
2023-02-15T19:06:40.241Z,1.00
2023-02-15T19:12:42.209Z,1.20
2023-02-15T19:18:44.112Z,1.30
2023-02-15T19:24:47.756Z,1.30
2023-02-15T19:30:49.596Z,1.20
2023-02-15T19:36:54.134Z,0.90
2023-02-15T19:42:56.564Z,0.60
2023-02-15T19:48:59.078Z,0.40
2023-02-15T19:55:00.889Z,0.30
2023-02-15T20:01:03.378Z,0.30
2023-02-15T20:07:14.884Z,0.20
2023-02-15T20:13:18.943Z,0.10
2023-02-15T20:19:20.938Z,0.10
2023-02-15T20:25:26.451Z,0.10
2023-02-15T20:31:28.464Z,0.10
2023-02-15T20:37:33.010Z,0.00
2023-02-15T20:43:35.974Z,0.10
2023-02-15T20:49:38.686Z,0.10
2023-02-15T20:55:40.528Z,0.10
2023-02-15T21:01:42.344Z,0.00
2023-02-15T21:07:44.638Z,0.30
2023-02-15T21:13:47.449Z,0.30
2023-02-15T21:19:49.214Z,0.30
2023-02-15T21:25:51.419Z,0.30
2023-02-15T21:31:53.738Z,0.40
2023-02-15T21:37:56.204Z,0.30
2023-02-15T21:44:16.370Z,0.10
2023-02-15T21:50:42.431Z,0.00
2023-02-15T21:57:33.967Z,-0.10
2023-02-15T22:03:38.144Z,0.20
2023-02-15T22:09:40.034Z,0.30
2023-02-15T22:15:42.340Z,0.40
2023-02-15T22:21:44.231Z,0.40
2023-02-15T22:27:47.236Z,0.60
2023-02-15T22:33:51.031Z,0.60
2023-02-15T22:39:52.868Z,0.70
2023-02-15T22:46:00.517Z,0.50
2023-02-15T22:52:02.373Z,0.50
2023-02-15T22:58:05.042Z,0.50
2023-02-15T23:04:07.144Z,0.70
2023-02-15T23:10:21.057Z,0.80
2023-02-15T23:16:23.002Z,0.80
2023-02-15T23:22:24.844Z,0.60
2023-02-15T23:28:33.934Z,0.40
2023-02-15T23:34:35.747Z,0.40
2023-02-15T23:40:56.164Z,0.30
2023-02-15T23:46:58.214Z,0.10
2023-02-15T23:53:01.294Z,0.00
2023-02-15T23:59:03.965Z,-0.20
